sensor_id;sensor_type;location;lat;lon;timestamp;temperature;humidity
53748;DHT22;39655;53.210;5.768;2023-06-26T00:01:19;24.10;62.00
53748;DHT22;39655;53.210;5.768;2023-06-26T00:03:48;24.00;61.90
53748;DHT22;39655;53.210;5.768;2023-06-26T00:06:14;24.00;62.80
53748;DHT22;39655;53.210;5.768;2023-06-26T00:08:40;24.00;63.00
53748;DHT22;39655;53.210;5.768;2023-06-26T00:11:06;24.00;62.70
53748;DHT22;39655;53.210;5.768;2023-06-26T00:13:31;24.00;62.90
53748;DHT22;39655;53.210;5.768;2023-06-26T00:15:57;24.00;63.30
53748;DHT22;39655;53.210;5.768;2023-06-26T00:18:23;23.90;64.10
53748;DHT22;39655;53.210;5.768;2023-06-26T00:20:49;23.90;63.30
53748;DHT22;39655;53.210;5.768;2023-06-26T00:23:18;23.80;63.40
53748;DHT22;39655;53.210;5.768;2023-06-26T00:25:44;23.80;63.40
53748;DHT22;39655;53.210;5.768;2023-06-26T00:28:10;23.90;64.00
53748;DHT22;39655;53.210;5.768;2023-06-26T00:30:35;23.80;64.00
53748;DHT22;39655;53.210;5.768;2023-06-26T00:33:01;23.80;64.40
53748;DHT22;39655;53.210;5.768;2023-06-26T00:35:27;23.70;64.20
53748;DHT22;39655;53.210;5.768;2023-06-26T00:37:52;23.70;64.60
53748;DHT22;39655;53.210;5.768;2023-06-26T00:40:18;23.70;64.90
53748;DHT22;39655;53.210;5.768;2023-06-26T00:42:44;23.70;65.00
53748;DHT22;39655;53.210;5.768;2023-06-26T00:45:10;23.60;66.00
53748;DHT22;39655;53.210;5.768;2023-06-26T00:47:36;23.60;65.30
53748;DHT22;39655;53.210;5.768;2023-06-26T00:50:02;23.60;65.80
53748;DHT22;39655;53.210;5.768;2023-06-26T00:52:29;23.60;65.50
53748;DHT22;39655;53.210;5.768;2023-06-26T00:54:55;23.50;66.10
53748;DHT22;39655;53.210;5.768;2023-06-26T00:57:21;23.50;66.10
53748;DHT22;39655;53.210;5.768;2023-06-26T00:59:48;23.50;66.50
53748;DHT22;39655;53.210;5.768;2023-06-26T01:02:13;23.40;66.30
53748;DHT22;39655;53.210;5.768;2023-06-26T01:04:43;23.40;65.90
53748;DHT22;39655;53.210;5.768;2023-06-26T01:07:13;23.40;66.00
53748;DHT22;39655;53.210;5.768;2023-06-26T01:09:41;23.30;66.10
53748;DHT22;39655;53.210;5.768;2023-06-26T01:12:07;23.30;66.40
53748;DHT22;39655;53.210;5.768;2023-06-26T01:14:34;23.30;66.60
53748;DHT22;39655;53.210;5.768;2023-06-26T01:17:02;23.20;67.10
53748;DHT22;39655;53.210;5.768;2023-06-26T01:19:29;23.20;67.30
53748;DHT22;39655;53.210;5.768;2023-06-26T01:22:19;23.10;67.70
53748;DHT22;39655;53.210;5.768;2023-06-26T01:24:56;23.10;67.40
53748;DHT22;39655;53.210;5.768;2023-06-26T01:27:24;23.10;68.00
53748;DHT22;39655;53.210;5.768;2023-06-26T01:29:51;23.00;68.20
53748;DHT22;39655;53.210;5.768;2023-06-26T01:32:18;22.90;68.60
53748;DHT22;39655;53.210;5.768;2023-06-26T01:34:45;22.90;69.00
53748;DHT22;39655;53.210;5.768;2023-06-26T01:37:11;22.80;68.90
53748;DHT22;39655;53.210;5.768;2023-06-26T01:39:37;22.70;69.00
53748;DHT22;39655;53.210;5.768;2023-06-26T01:42:03;22.70;69.00
53748;DHT22;39655;53.210;5.768;2023-06-26T01:44:29;22.70;69.10
53748;DHT22;39655;53.210;5.768;2023-06-26T01:47:03;22.60;69.50
53748;DHT22;39655;53.210;5.768;2023-06-26T01:54:31;22.60;70.50
53748;DHT22;39655;53.210;5.768;2023-06-26T01:56:58;22.60;70.60
53748;DHT22;39655;53.210;5.768;2023-06-26T01:59:25;22.60;70.70
53748;DHT22;39655;53.210;5.768;2023-06-26T02:01:52;22.60;70.70
53748;DHT22;39655;53.210;5.768;2023-06-26T02:04:18;22.60;71.20
53748;DHT22;39655;53.210;5.768;2023-06-26T02:06:44;22.70;71.20
53748;DHT22;39655;53.210;5.768;2023-06-26T02:09:09;22.60;71.30
53748;DHT22;39655;53.210;5.768;2023-06-26T02:11:35;22.60;71.60
53748;DHT22;39655;53.210;5.768;2023-06-26T02:14:01;22.50;71.40
53748;DHT22;39655;53.210;5.768;2023-06-26T02:16:26;22.40;71.90
53748;DHT22;39655;53.210;5.768;2023-06-26T02:18:52;22.30;71.80
53748;DHT22;39655;53.210;5.768;2023-06-26T02:21:18;22.20;72.30
53748;DHT22;39655;53.210;5.768;2023-06-26T02:23:43;22.20;72.40
53748;DHT22;39655;53.210;5.768;2023-06-26T02:26:09;22.30;73.90
53748;DHT22;39655;53.210;5.768;2023-06-26T02:28:35;22.30;73.80
53748;DHT22;39655;53.210;5.768;2023-06-26T02:31:00;22.20;75.00
53748;DHT22;39655;53.210;5.768;2023-06-26T02:33:26;22.10;75.00
53748;DHT22;39655;53.210;5.768;2023-06-26T02:35:52;22.10;74.80
53748;DHT22;39655;53.210;5.768;2023-06-26T02:38:18;22.10;75.10
53748;DHT22;39655;53.210;5.768;2023-06-26T02:40:44;22.10;75.20
53748;DHT22;39655;53.210;5.768;2023-06-26T02:43:10;21.90;75.70
53748;DHT22;39655;53.210;5.768;2023-06-26T02:45:35;21.80;75.80
53748;DHT22;39655;53.210;5.768;2023-06-26T02:48:01;21.80;75.80
53748;DHT22;39655;53.210;5.768;2023-06-26T02:50:27;21.70;76.00
53748;DHT22;39655;53.210;5.768;2023-06-26T02:52:53;21.60;76.30
53748;DHT22;39655;53.210;5.768;2023-06-26T02:55:19;21.60;76.60
53748;DHT22;39655;53.210;5.768;2023-06-26T02:57:46;21.60;76.80
53748;DHT22;39655;53.210;5.768;2023-06-26T03:00:12;21.60;76.80
53748;DHT22;39655;53.210;5.768;2023-06-26T03:02:38;21.60;77.60
53748;DHT22;39655;53.210;5.768;2023-06-26T03:05:04;21.60;77.70
53748;DHT22;39655;53.210;5.768;2023-06-26T03:07:30;21.50;77.90
53748;DHT22;39655;53.210;5.768;2023-06-26T03:09:56;21.40;77.90
53748;DHT22;39655;53.210;5.768;2023-06-26T03:12:22;21.40;78.70
53748;DHT22;39655;53.210;5.768;2023-06-26T03:14:51;21.30;78.70
53748;DHT22;39655;53.210;5.768;2023-06-26T03:17:16;21.30;78.60
53748;DHT22;39655;53.210;5.768;2023-06-26T03:19:42;21.30;78.90
53748;DHT22;39655;53.210;5.768;2023-06-26T03:22:08;21.30;79.40
53748;DHT22;39655;53.210;5.768;2023-06-26T03:24:34;21.30;79.20
53748;DHT22;39655;53.210;5.768;2023-06-26T03:26:59;21.20;79.70
53748;DHT22;39655;53.210;5.768;2023-06-26T03:29:25;21.30;80.00
53748;DHT22;39655;53.210;5.768;2023-06-26T03:31:51;21.30;80.10
53748;DHT22;39655;53.210;5.768;2023-06-26T03:34:17;21.30;80.30
53748;DHT22;39655;53.210;5.768;2023-06-26T03:36:42;21.10;80.60
53748;DHT22;39655;53.210;5.768;2023-06-26T03:39:08;21.10;80.80
53748;DHT22;39655;53.210;5.768;2023-06-26T03:41:34;21.10;80.80
53748;DHT22;39655;53.210;5.768;2023-06-26T03:43:59;21.00;81.00
53748;DHT22;39655;53.210;5.768;2023-06-26T03:46:26;20.90;81.20
53748;DHT22;39655;53.210;5.768;2023-06-26T03:48:52;20.90;81.40
53748;DHT22;39655;53.210;5.768;2023-06-26T03:51:18;20.90;81.10
53748;DHT22;39655;53.210;5.768;2023-06-26T03:53:43;20.90;81.70
53748;DHT22;39655;53.210;5.768;2023-06-26T03:56:09;20.90;81.50
53748;DHT22;39655;53.210;5.768;2023-06-26T03:58:35;20.90;81.30
53748;DHT22;39655;53.210;5.768;2023-06-26T04:01:00;20.90;81.40
53748;DHT22;39655;53.210;5.768;2023-06-26T04:03:26;20.80;81.60
53748;DHT22;39655;53.210;5.768;2023-06-26T04:05:52;20.70;81.40
53748;DHT22;39655;53.210;5.768;2023-06-26T04:08:18;20.60;81.50
53748;DHT22;39655;53.210;5.768;2023-06-26T04:10:45;20.60;81.70
53748;DHT22;39655;53.210;5.768;2023-06-26T04:13:11;20.60;81.40
53748;DHT22;39655;53.210;5.768;2023-06-26T04:15:37;20.40;82.10
53748;DHT22;39655;53.210;5.768;2023-06-26T04:18:03;20.40;81.80
53748;DHT22;39655;53.210;5.768;2023-06-26T04:20:28;20.30;82.00
53748;DHT22;39655;53.210;5.768;2023-06-26T04:22:54;20.40;82.50
53748;DHT22;39655;53.210;5.768;2023-06-26T04:25:20;20.40;82.70
53748;DHT22;39655;53.210;5.768;2023-06-26T04:27:46;20.20;83.20
53748;DHT22;39655;53.210;5.768;2023-06-26T04:30:12;20.30;83.60
53748;DHT22;39655;53.210;5.768;2023-06-26T04:32:38;20.20;83.40
53748;DHT22;39655;53.210;5.768;2023-06-26T04:35:04;20.20;83.10
53748;DHT22;39655;53.210;5.768;2023-06-26T04:37:30;20.10;83.00
53748;DHT22;39655;53.210;5.768;2023-06-26T04:40:06;20.10;82.40
53748;DHT22;39655;53.210;5.768;2023-06-26T04:42:53;20.00;82.60
53748;DHT22;39655;53.210;5.768;2023-06-26T04:45:45;20.00;83.00
53748;DHT22;39655;53.210;5.768;2023-06-26T04:48:27;19.90;83.30
53748;DHT22;39655;53.210;5.768;2023-06-26T04:51:06;19.80;83.40
53748;DHT22;39655;53.210;5.768;2023-06-26T04:53:42;19.80;83.40
53748;DHT22;39655;53.210;5.768;2023-06-26T04:56:15;19.80;83.50
53748;DHT22;39655;53.210;5.768;2023-06-26T04:58:44;19.80;83.00
53748;DHT22;39655;53.210;5.768;2023-06-26T05:01:17;19.70;83.20
53748;DHT22;39655;53.210;5.768;2023-06-26T05:03:52;19.60;83.10
53748;DHT22;39655;53.210;5.768;2023-06-26T05:09:29;19.70;81.90
53748;DHT22;39655;53.210;5.768;2023-06-26T05:15:14;19.60;82.60
53748;DHT22;39655;53.210;5.768;2023-06-26T05:18:05;19.50;82.70
53748;DHT22;39655;53.210;5.768;2023-06-26T05:20:35;19.50;83.00
53748;DHT22;39655;53.210;5.768;2023-06-26T05:23:29;19.40;83.00
53748;DHT22;39655;53.210;5.768;2023-06-26T05:26:07;19.30;83.30
53748;DHT22;39655;53.210;5.768;2023-06-26T05:32:21;19.50;83.30
53748;DHT22;39655;53.210;5.768;2023-06-26T05:35:02;19.50;83.00
53748;DHT22;39655;53.210;5.768;2023-06-26T05:37:39;19.50;83.30
53748;DHT22;39655;53.210;5.768;2023-06-26T05:40:59;19.60;82.60
53748;DHT22;39655;53.210;5.768;2023-06-26T05:44:29;19.60;81.90
53748;DHT22;39655;53.210;5.768;2023-06-26T05:50:42;19.80;80.10
53748;DHT22;39655;53.210;5.768;2023-06-26T05:53:53;19.90;79.30
53748;DHT22;39655;53.210;5.768;2023-06-26T05:56:30;19.90;79.20
53748;DHT22;39655;53.210;5.768;2023-06-26T05:58:56;19.90;79.40
53748;DHT22;39655;53.210;5.768;2023-06-26T06:01:22;19.80;79.50
53748;DHT22;39655;53.210;5.768;2023-06-26T06:04:15;19.80;79.20
53748;DHT22;39655;53.210;5.768;2023-06-26T06:06:45;19.70;79.30
53748;DHT22;39655;53.210;5.768;2023-06-26T06:09:19;19.80;79.00
53748;DHT22;39655;53.210;5.768;2023-06-26T06:11:48;19.80;79.10
53748;DHT22;39655;53.210;5.768;2023-06-26T06:34:53;19.90;77.20
53748;DHT22;39655;53.210;5.768;2023-06-26T06:37:57;19.80;76.40
53748;DHT22;39655;53.210;5.768;2023-06-26T06:41:38;19.80;76.60
53748;DHT22;39655;53.210;5.768;2023-06-26T06:44:09;19.90;75.40
53748;DHT22;39655;53.210;5.768;2023-06-26T06:47:24;20.00;74.90
53748;DHT22;39655;53.210;5.768;2023-06-26T06:50:18;20.10;73.80
53748;DHT22;39655;53.210;5.768;2023-06-26T06:56:12;20.00;75.20
53748;DHT22;39655;53.210;5.768;2023-06-26T06:59:22;20.10;75.60
53748;DHT22;39655;53.210;5.768;2023-06-26T07:02:05;20.20;74.70
53748;DHT22;39655;53.210;5.768;2023-06-26T07:04:56;20.20;74.90
53748;DHT22;39655;53.210;5.768;2023-06-26T07:07:27;20.30;73.60
53748;DHT22;39655;53.210;5.768;2023-06-26T07:10:13;20.30;73.80
53748;DHT22;39655;53.210;5.768;2023-06-26T07:12:56;20.10;74.30
53748;DHT22;39655;53.210;5.768;2023-06-26T07:15:25;20.20;74.20
53748;DHT22;39655;53.210;5.768;2023-06-26T07:17:50;20.50;74.40
53748;DHT22;39655;53.210;5.768;2023-06-26T07:20:16;20.70;74.00
53748;DHT22;39655;53.210;5.768;2023-06-26T07:22:43;20.80;73.50
53748;DHT22;39655;53.210;5.768;2023-06-26T07:25:11;20.70;72.90
53748;DHT22;39655;53.210;5.768;2023-06-26T07:27:41;20.60;73.70
53748;DHT22;39655;53.210;5.768;2023-06-26T07:30:07;20.50;73.50
53748;DHT22;39655;53.210;5.768;2023-06-26T07:32:36;20.40;74.30
53748;DHT22;39655;53.210;5.768;2023-06-26T07:35:02;20.50;74.00
53748;DHT22;39655;53.210;5.768;2023-06-26T07:37:28;20.50;73.90
53748;DHT22;39655;53.210;5.768;2023-06-26T07:39:54;20.60;73.80
53748;DHT22;39655;53.210;5.768;2023-06-26T07:42:20;20.60;73.30
53748;DHT22;39655;53.210;5.768;2023-06-26T07:44:46;20.70;72.40
53748;DHT22;39655;53.210;5.768;2023-06-26T07:47:12;20.70;72.80
53748;DHT22;39655;53.210;5.768;2023-06-26T07:49:38;20.70;72.80
53748;DHT22;39655;53.210;5.768;2023-06-26T07:52:04;20.70;72.60
53748;DHT22;39655;53.210;5.768;2023-06-26T07:54:30;20.50;73.00
53748;DHT22;39655;53.210;5.768;2023-06-26T07:56:58;20.50;73.90
53748;DHT22;39655;53.210;5.768;2023-06-26T07:59:25;20.60;72.90
53748;DHT22;39655;53.210;5.768;2023-06-26T08:01:52;20.50;73.00
53748;DHT22;39655;53.210;5.768;2023-06-26T08:04:18;20.30;73.60
53748;DHT22;39655;53.210;5.768;2023-06-26T08:06:49;20.40;73.60
53748;DHT22;39655;53.210;5.768;2023-06-26T08:09:16;20.50;72.70
53748;DHT22;39655;53.210;5.768;2023-06-26T08:11:42;20.60;72.80
53748;DHT22;39655;53.210;5.768;2023-06-26T08:14:08;20.70;72.00
53748;DHT22;39655;53.210;5.768;2023-06-26T08:16:34;20.60;72.20
53748;DHT22;39655;53.210;5.768;2023-06-26T08:19:00;20.60;71.70
53748;DHT22;39655;53.210;5.768;2023-06-26T08:21:25;20.70;71.60
53748;DHT22;39655;53.210;5.768;2023-06-26T08:23:51;20.80;72.40
53748;DHT22;39655;53.210;5.768;2023-06-26T08:26:17;20.80;72.60
53748;DHT22;39655;53.210;5.768;2023-06-26T08:28:42;20.90;73.00
53748;DHT22;39655;53.210;5.768;2023-06-26T08:31:08;20.90;72.30
53748;DHT22;39655;53.210;5.768;2023-06-26T08:33:34;20.80;72.40
53748;DHT22;39655;53.210;5.768;2023-06-26T08:35:59;20.80;71.80
53748;DHT22;39655;53.210;5.768;2023-06-26T08:38:25;20.70;72.80
53748;DHT22;39655;53.210;5.768;2023-06-26T08:40:51;20.80;71.30
53748;DHT22;39655;53.210;5.768;2023-06-26T08:43:16;20.80;71.40
53748;DHT22;39655;53.210;5.768;2023-06-26T08:45:42;20.80;71.60
53748;DHT22;39655;53.210;5.768;2023-06-26T08:48:08;20.80;72.00
53748;DHT22;39655;53.210;5.768;2023-06-26T08:50:35;20.80;69.70
53748;DHT22;39655;53.210;5.768;2023-06-26T08:53:11;20.70;69.60
53748;DHT22;39655;53.210;5.768;2023-06-26T08:55:41;20.80;70.30
53748;DHT22;39655;53.210;5.768;2023-06-26T08:58:08;20.80;70.00
53748;DHT22;39655;53.210;5.768;2023-06-26T09:00:34;20.90;69.40
53748;DHT22;39655;53.210;5.768;2023-06-26T09:03:02;20.90;69.50
53748;DHT22;39655;53.210;5.768;2023-06-26T09:05:28;20.90;69.20
53748;DHT22;39655;53.210;5.768;2023-06-26T09:07:54;20.90;69.10
53748;DHT22;39655;53.210;5.768;2023-06-26T09:10:21;21.00;69.50
53748;DHT22;39655;53.210;5.768;2023-06-26T09:12:47;21.00;69.40
53748;DHT22;39655;53.210;5.768;2023-06-26T09:15:19;21.10;69.20
53748;DHT22;39655;53.210;5.768;2023-06-26T09:17:45;21.40;69.10
53748;DHT22;39655;53.210;5.768;2023-06-26T09:20:12;21.40;68.10
53748;DHT22;39655;53.210;5.768;2023-06-26T09:22:47;21.00;69.40
53748;DHT22;39655;53.210;5.768;2023-06-26T09:25:12;20.90;70.00
53748;DHT22;39655;53.210;5.768;2023-06-26T09:27:38;21.00;70.00
53748;DHT22;39655;53.210;5.768;2023-06-26T09:30:08;21.10;70.00
53748;DHT22;39655;53.210;5.768;2023-06-26T09:32:37;21.50;67.80
53748;DHT22;39655;53.210;5.768;2023-06-26T09:35:11;21.70;67.40
53748;DHT22;39655;53.210;5.768;2023-06-26T09:37:37;21.80;64.80
53748;DHT22;39655;53.210;5.768;2023-06-26T09:40:03;21.60;65.30
53748;DHT22;39655;53.210;5.768;2023-06-26T09:42:32;21.40;64.90
53748;DHT22;39655;53.210;5.768;2023-06-26T09:44:58;21.20;66.50
53748;DHT22;39655;53.210;5.768;2023-06-26T09:47:24;21.10;66.90
53748;DHT22;39655;53.210;5.768;2023-06-26T09:49:49;21.20;65.30
53748;DHT22;39655;53.210;5.768;2023-06-26T09:52:17;21.20;66.20
53748;DHT22;39655;53.210;5.768;2023-06-26T09:54:44;21.30;66.50
53748;DHT22;39655;53.210;5.768;2023-06-26T09:59:37;21.50;65.60
53748;DHT22;39655;53.210;5.768;2023-06-26T10:02:03;21.40;65.50
53748;DHT22;39655;53.210;5.768;2023-06-26T10:04:29;21.30;63.90
53748;DHT22;39655;53.210;5.768;2023-06-26T10:06:56;21.10;64.70
53748;DHT22;39655;53.210;5.768;2023-06-26T10:09:23;21.20;65.20
53748;DHT22;39655;53.210;5.768;2023-06-26T10:12:02;21.40;63.70
53748;DHT22;39655;53.210;5.768;2023-06-26T10:14:34;21.40;64.80
53748;DHT22;39655;53.210;5.768;2023-06-26T10:17:01;21.70;63.60
53748;DHT22;39655;53.210;5.768;2023-06-26T10:19:27;21.70;62.10
53748;DHT22;39655;53.210;5.768;2023-06-26T10:21:54;21.70;63.00
53748;DHT22;39655;53.210;5.768;2023-06-26T10:24:22;21.70;62.40
53748;DHT22;39655;53.210;5.768;2023-06-26T10:26:52;21.70;62.30
53748;DHT22;39655;53.210;5.768;2023-06-26T10:29:19;21.70;62.20
53748;DHT22;39655;53.210;5.768;2023-06-26T10:31:50;21.60;63.80
53748;DHT22;39655;53.210;5.768;2023-06-26T10:34:17;21.60;63.60
53748;DHT22;39655;53.210;5.768;2023-06-26T10:36:42;21.50;62.80
53748;DHT22;39655;53.210;5.768;2023-06-26T10:39:09;21.50;63.30
53748;DHT22;39655;53.210;5.768;2023-06-26T10:41:41;21.60;62.90
53748;DHT22;39655;53.210;5.768;2023-06-26T10:44:15;21.70;61.40
53748;DHT22;39655;53.210;5.768;2023-06-26T10:46:49;21.60;61.80
53748;DHT22;39655;53.210;5.768;2023-06-26T10:49:16;21.60;61.80
53748;DHT22;39655;53.210;5.768;2023-06-26T10:51:49;21.60;62.90
53748;DHT22;39655;53.210;5.768;2023-06-26T10:54:17;21.70;62.30
53748;DHT22;39655;53.210;5.768;2023-06-26T10:59:23;21.50;62.70
53748;DHT22;39655;53.210;5.768;2023-06-26T11:02:00;21.30;62.90
53748;DHT22;39655;53.210;5.768;2023-06-26T11:04:40;21.10;64.50
53748;DHT22;39655;53.210;5.768;2023-06-26T11:07:22;21.20;64.60
53748;DHT22;39655;53.210;5.768;2023-06-26T11:15:12;21.20;65.10
53748;DHT22;39655;53.210;5.768;2023-06-26T11:17:39;21.40;65.80
53748;DHT22;39655;53.210;5.768;2023-06-26T11:20:07;21.80;62.70
53748;DHT22;39655;53.210;5.768;2023-06-26T11:22:38;21.80;61.80
53748;DHT22;39655;53.210;5.768;2023-06-26T11:25:05;21.90;61.60
53748;DHT22;39655;53.210;5.768;2023-06-26T11:27:32;22.10;60.30
53748;DHT22;39655;53.210;5.768;2023-06-26T11:29:58;22.10;61.40
53748;DHT22;39655;53.210;5.768;2023-06-26T11:32:26;22.00;62.50
53748;DHT22;39655;53.210;5.768;2023-06-26T11:34:52;22.00;61.90
53748;DHT22;39655;53.210;5.768;2023-06-26T11:37:20;22.10;62.20
53748;DHT22;39655;53.210;5.768;2023-06-26T11:39:46;22.30;61.80
53748;DHT22;39655;53.210;5.768;2023-06-26T11:42:12;22.60;61.50
53748;DHT22;39655;53.210;5.768;2023-06-26T11:44:42;22.60;60.90
53748;DHT22;39655;53.210;5.768;2023-06-26T11:47:12;22.60;60.60
53748;DHT22;39655;53.210;5.768;2023-06-26T11:49:37;22.10;60.40
53748;DHT22;39655;53.210;5.768;2023-06-26T11:52:03;21.70;62.00
53748;DHT22;39655;53.210;5.768;2023-06-26T11:54:29;22.00;61.70
53748;DHT22;39655;53.210;5.768;2023-06-26T11:56:57;22.00;61.90
53748;DHT22;39655;53.210;5.768;2023-06-26T11:59:24;21.80;63.80
53748;DHT22;39655;53.210;5.768;2023-06-26T12:01:50;21.90;62.80
53748;DHT22;39655;53.210;5.768;2023-06-26T12:04:18;22.10;62.40
53748;DHT22;39655;53.210;5.768;2023-06-26T12:06:51;22.70;60.20
53748;DHT22;39655;53.210;5.768;2023-06-26T12:09:19;23.00;59.60
53748;DHT22;39655;53.210;5.768;2023-06-26T12:11:47;22.70;60.30
53748;DHT22;39655;53.210;5.768;2023-06-26T12:14:17;22.60;60.10
53748;DHT22;39655;53.210;5.768;2023-06-26T12:16:43;22.50;59.90
53748;DHT22;39655;53.210;5.768;2023-06-26T12:19:09;22.60;60.00
53748;DHT22;39655;53.210;5.768;2023-06-26T12:24:07;22.80;59.30
53748;DHT22;39655;53.210;5.768;2023-06-26T12:26:34;22.60;58.60
53748;DHT22;39655;53.210;5.768;2023-06-26T12:29:04;22.70;60.60
53748;DHT22;39655;53.210;5.768;2023-06-26T12:31:31;23.30;58.30
53748;DHT22;39655;53.210;5.768;2023-06-26T12:33:57;23.50;57.60
53748;DHT22;39655;53.210;5.768;2023-06-26T12:36:22;23.20;58.40
53748;DHT22;39655;53.210;5.768;2023-06-26T12:38:48;23.20;58.90
53748;DHT22;39655;53.210;5.768;2023-06-26T12:41:15;23.10;58.80
53748;DHT22;39655;53.210;5.768;2023-06-26T12:43:42;22.90;59.40
53748;DHT22;39655;53.210;5.768;2023-06-26T12:46:08;22.90;59.20
53748;DHT22;39655;53.210;5.768;2023-06-26T12:48:43;23.20;59.20
53748;DHT22;39655;53.210;5.768;2023-06-26T12:51:16;23.60;57.30
53748;DHT22;39655;53.210;5.768;2023-06-26T12:53:42;23.20;58.90
53748;DHT22;39655;53.210;5.768;2023-06-26T12:56:08;23.40;57.90
53748;DHT22;39655;53.210;5.768;2023-06-26T12:58:35;23.40;57.90
53748;DHT22;39655;53.210;5.768;2023-06-26T13:01:06;23.60;56.70
53748;DHT22;39655;53.210;5.768;2023-06-26T13:03:40;23.30;57.10
53748;DHT22;39655;53.210;5.768;2023-06-26T13:06:06;22.90;57.70
53748;DHT22;39655;53.210;5.768;2023-06-26T13:08:33;22.60;58.20
53748;DHT22;39655;53.210;5.768;2023-06-26T13:10:59;23.00;58.20
53748;DHT22;39655;53.210;5.768;2023-06-26T13:13:27;23.50;57.10
53748;DHT22;39655;53.210;5.768;2023-06-26T13:15:52;23.20;58.00
53748;DHT22;39655;53.210;5.768;2023-06-26T13:18:18;23.50;57.40
53748;DHT22;39655;53.210;5.768;2023-06-26T13:20:44;23.90;56.30
53748;DHT22;39655;53.210;5.768;2023-06-26T13:23:09;24.70;54.60
53748;DHT22;39655;53.210;5.768;2023-06-26T13:25:48;24.50;53.10
53748;DHT22;39655;53.210;5.768;2023-06-26T13:28:22;24.60;52.80
53748;DHT22;39655;53.210;5.768;2023-06-26T13:30:48;23.80;54.50
53748;DHT22;39655;53.210;5.768;2023-06-26T13:33:13;23.50;56.60
53748;DHT22;39655;53.210;5.768;2023-06-26T13:35:39;23.40;54.80
53748;DHT22;39655;53.210;5.768;2023-06-26T13:38:07;23.90;54.70
53748;DHT22;39655;53.210;5.768;2023-06-26T13:40:33;24.40;54.20
53748;DHT22;39655;53.210;5.768;2023-06-26T13:42:58;24.70;53.60
53748;DHT22;39655;53.210;5.768;2023-06-26T13:45:25;24.50;53.00
53748;DHT22;39655;53.210;5.768;2023-06-26T13:47:51;24.60;53.20
53748;DHT22;39655;53.210;5.768;2023-06-26T13:50:16;25.00;51.40
53748;DHT22;39655;53.210;5.768;2023-06-26T13:52:44;24.50;52.60
53748;DHT22;39655;53.210;5.768;2023-06-26T13:55:19;23.90;53.80
53748;DHT22;39655;53.210;5.768;2023-06-26T13:57:47;23.70;55.50
53748;DHT22;39655;53.210;5.768;2023-06-26T14:00:15;23.30;56.00
53748;DHT22;39655;53.210;5.768;2023-06-26T14:02:45;22.80;57.10
53748;DHT22;39655;53.210;5.768;2023-06-26T14:05:11;22.80;57.10
53748;DHT22;39655;53.210;5.768;2023-06-26T14:07:37;23.20;57.30
53748;DHT22;39655;53.210;5.768;2023-06-26T14:10:04;23.60;55.20
53748;DHT22;39655;53.210;5.768;2023-06-26T14:12:31;23.70;54.60
53748;DHT22;39655;53.210;5.768;2023-06-26T14:14:57;24.10;54.10
53748;DHT22;39655;53.210;5.768;2023-06-26T14:17:23;24.80;51.30
53748;DHT22;39655;53.210;5.768;2023-06-26T14:19:52;25.20;50.80
53748;DHT22;39655;53.210;5.768;2023-06-26T14:22:18;25.40;49.90
53748;DHT22;39655;53.210;5.768;2023-06-26T14:24:43;25.40;49.10
53748;DHT22;39655;53.210;5.768;2023-06-26T14:27:09;24.90;50.60
53748;DHT22;39655;53.210;5.768;2023-06-26T14:29:36;24.60;52.00
53748;DHT22;39655;53.210;5.768;2023-06-26T14:32:02;24.60;50.20
53748;DHT22;39655;53.210;5.768;2023-06-26T14:34:28;23.50;52.90
53748;DHT22;39655;53.210;5.768;2023-06-26T14:36:53;23.10;55.40
53748;DHT22;39655;53.210;5.768;2023-06-26T14:39:19;23.70;54.80
53748;DHT22;39655;53.210;5.768;2023-06-26T14:41:45;23.80;54.00
53748;DHT22;39655;53.210;5.768;2023-06-26T14:44:10;24.10;50.20
53748;DHT22;39655;53.210;5.768;2023-06-26T14:46:36;23.70;52.10
53748;DHT22;39655;53.210;5.768;2023-06-26T14:49:03;23.90;51.30
53748;DHT22;39655;53.210;5.768;2023-06-26T14:51:28;24.30;48.10
53748;DHT22;39655;53.210;5.768;2023-06-26T14:53:54;24.10;48.00
53748;DHT22;39655;53.210;5.768;2023-06-26T14:56:20;24.60;47.50
53748;DHT22;39655;53.210;5.768;2023-06-26T14:58:45;24.60;48.50
53748;DHT22;39655;53.210;5.768;2023-06-26T15:01:14;24.40;49.90
53748;DHT22;39655;53.210;5.768;2023-06-26T15:03:48;24.00;52.60
53748;DHT22;39655;53.210;5.768;2023-06-26T15:06:13;23.80;53.10
53748;DHT22;39655;53.210;5.768;2023-06-26T15:08:39;23.70;52.30
53748;DHT22;39655;53.210;5.768;2023-06-26T15:11:05;23.20;54.40
53748;DHT22;39655;53.210;5.768;2023-06-26T15:13:30;23.00;54.20
53748;DHT22;39655;53.210;5.768;2023-06-26T15:16:09;23.00;53.00
53748;DHT22;39655;53.210;5.768;2023-06-26T15:18:55;22.70;53.90
53748;DHT22;39655;53.210;5.768;2023-06-26T15:21:21;23.20;53.30
53748;DHT22;39655;53.210;5.768;2023-06-26T15:23:47;23.80;52.30
53748;DHT22;39655;53.210;5.768;2023-06-26T15:26:13;24.10;49.60
53748;DHT22;39655;53.210;5.768;2023-06-26T15:28:39;24.70;47.40
53748;DHT22;39655;53.210;5.768;2023-06-26T15:31:05;24.70;45.80
53748;DHT22;39655;53.210;5.768;2023-06-26T15:33:30;24.70;47.20
53748;DHT22;39655;53.210;5.768;2023-06-26T15:35:56;25.10;46.00
53748;DHT22;39655;53.210;5.768;2023-06-26T15:38:22;25.30;46.10
53748;DHT22;39655;53.210;5.768;2023-06-26T15:40:47;25.80;45.30
53748;DHT22;39655;53.210;5.768;2023-06-26T15:43:16;25.60;44.50
53748;DHT22;39655;53.210;5.768;2023-06-26T15:45:42;25.00;46.00
53748;DHT22;39655;53.210;5.768;2023-06-26T15:48:08;25.20;45.30
53748;DHT22;39655;53.210;5.768;2023-06-26T15:50:33;25.50;44.50
53748;DHT22;39655;53.210;5.768;2023-06-26T15:53:01;25.50;44.70
53748;DHT22;39655;53.210;5.768;2023-06-26T15:55:27;25.80;44.80
53748;DHT22;39655;53.210;5.768;2023-06-26T15:57:53;26.30;43.70
53748;DHT22;39655;53.210;5.768;2023-06-26T16:00:19;26.20;43.00
53748;DHT22;39655;53.210;5.768;2023-06-26T16:02:45;25.90;44.00
53748;DHT22;39655;53.210;5.768;2023-06-26T16:05:11;26.30;42.20
53748;DHT22;39655;53.210;5.768;2023-06-26T16:07:37;26.10;40.70
53748;DHT22;39655;53.210;5.768;2023-06-26T16:10:02;25.90;42.10
53748;DHT22;39655;53.210;5.768;2023-06-26T16:12:28;26.10;41.70
53748;DHT22;39655;53.210;5.768;2023-06-26T16:14:54;26.10;39.70
53748;DHT22;39655;53.210;5.768;2023-06-26T16:17:19;26.00;38.90
53748;DHT22;39655;53.210;5.768;2023-06-26T16:19:45;25.90;39.60
53748;DHT22;39655;53.210;5.768;2023-06-26T16:22:11;25.70;40.20
53748;DHT22;39655;53.210;5.768;2023-06-26T16:24:37;25.70;42.20
53748;DHT22;39655;53.210;5.768;2023-06-26T16:27:02;25.60;43.30
53748;DHT22;39655;53.210;5.768;2023-06-26T16:29:28;25.80;40.40
53748;DHT22;39655;53.210;5.768;2023-06-26T16:31:54;25.80;41.40
53748;DHT22;39655;53.210;5.768;2023-06-26T16:34:20;26.00;41.60
53748;DHT22;39655;53.210;5.768;2023-06-26T16:36:46;26.10;40.80